Turon, Kansas
Current Conditions -  °F | °C
As of 8:55 PM on Friday 19 Dec 2014 (Local Time) from KPTT Reporting Station
Clear Clear  
Wind Chill: 25°   Ceiling: Unl
Heat Index: 32°   Visibility: 7mi
Dew Point: 32°   Wind: 8mph
Humidity: 100%   Direction: 200°SSW
Pressure: 30.14"   Gusts: NA
Location:  37.81°N, 98.43°W
Report Text: KPTT 200255Z AUTO 20007KT 7SM CLR 00/00 A3014 RMK AO2
Loading
Personal Weather Stations






























Interactive Weather Map New forecast layout! Learn more

10-Day Weather Forecast

Advertisements
Track Severe Weather on mobile